Live aus Altenrhein
LIVE
LSZR 190150Z AUTO 10003KT 6000 NSC M11/M12 Q1030

People´s Info Center:

Öffnungszeiten Mo-Fr, 8-18 Uhr

 

info@peoples.ch

 
Aus Österreich:

T: +43 (0)5572 203 610

 

Aus CH / LI / DE:

T: +41 (0)71 858 51 60

 

Webcam Flughafen St.Gallen-Altenrhein

Live-Bilder und Zeitraffer LSZR / ACH.

 

Live aus Altenrhein
LIVE
LSZR 190150Z AUTO 10003KT 6000 NSC M11/M12 Q1030
Zeitraffer heute
2017-01-19 00:14:59
LSZR 182250Z AUTO 10004KT 5000 NSC M11/M12 Q1030
Zeitraffer gestern
2017-01-18 00:14:57
LSZR 172250Z AUTO 10002KT 9999 FEW028 M07/M09 Q1028
Zeitraffer vor 3 Tagen
2017-01-16 00:14:59
LSZR 152250Z AUTO 25004KT 9999 FEW014 OVC050 M01/M04 Q1021